sensor_id;sensor_type;location;lat;lon;timestamp;pressure;altitude;pressure_sealevel;temperature;humidity
28344;BME280;15597;50.914;6.638;2023-08-12T00:00:02;101068.50;;;29.01;50.12
28344;BME280;15597;50.914;6.638;2023-08-12T00:02:34;101072.88;;;28.93;50.46
28344;BME280;15597;50.914;6.638;2023-08-12T00:05:00;101055.47;;;28.87;49.97
28344;BME280;15597;50.914;6.638;2023-08-12T00:07:26;101050.78;;;28.79;50.07
28344;BME280;15597;50.914;6.638;2023-08-12T00:09:51;101043.81;;;28.77;49.88
28344;BME280;15597;50.914;6.638;2023-08-12T00:12:17;101035.88;;;28.75;49.06
28344;BME280;15597;50.914;6.638;2023-08-12T00:14:42;101029.94;;;28.71;48.63
28344;BME280;15597;50.914;6.638;2023-08-12T00:17:07;101023.56;;;28.72;48.38
28344;BME280;15597;50.914;6.638;2023-08-12T00:19:33;101033.34;;;28.74;48.65
28344;BME280;15597;50.914;6.638;2023-08-12T00:21:58;101031.34;;;28.76;49.60
28344;BME280;15597;50.914;6.638;2023-08-12T00:24:24;101027.41;;;28.80;48.82
28344;BME280;15597;50.914;6.638;2023-08-12T00:26:49;101026.25;;;28.82;49.96
28344;BME280;15597;50.914;6.638;2023-08-12T00:29:15;101038.19;;;28.80;49.89
28344;BME280;15597;50.914;6.638;2023-08-12T00:31:41;101032.09;;;28.78;50.52
28344;BME280;15597;50.914;6.638;2023-08-12T00:34:06;101034.78;;;28.78;49.01
28344;BME280;15597;50.914;6.638;2023-08-12T00:36:31;101020.16;;;28.80;50.08
28344;BME280;15597;50.914;6.638;2023-08-12T00:38:57;101021.16;;;28.79;50.29
28344;BME280;15597;50.914;6.638;2023-08-12T00:41:23;101006.88;;;28.79;50.41
28344;BME280;15597;50.914;6.638;2023-08-12T00:43:48;101021.16;;;28.79;50.40
28344;BME280;15597;50.914;6.638;2023-08-12T00:46:14;101019.59;;;28.77;48.81
28344;BME280;15597;50.914;6.638;2023-08-12T00:48:40;101014.06;;;28.78;49.08
28344;BME280;15597;50.914;6.638;2023-08-12T00:51:05;101004.16;;;28.79;48.13
28344;BME280;15597;50.914;6.638;2023-08-12T00:53:31;101001.47;;;28.79;49.68
28344;BME280;15597;50.914;6.638;2023-08-12T00:55:58;101006.13;;;28.77;50.09
28344;BME280;15597;50.914;6.638;2023-08-12T00:58:23;101002.72;;;28.75;50.16
28344;BME280;15597;50.914;6.638;2023-08-12T01:00:49;101016.47;;;28.71;50.96
28344;BME280;15597;50.914;6.638;2023-08-12T01:03:17;101010.66;;;28.66;50.66
28344;BME280;15597;50.914;6.638;2023-08-12T01:05:43;101000.44;;;28.60;51.19
28344;BME280;15597;50.914;6.638;2023-08-12T01:08:09;101003.69;;;28.54;51.47
28344;BME280;15597;50.914;6.638;2023-08-12T01:10:37;101005.81;;;28.50;50.28
28344;BME280;15597;50.914;6.638;2023-08-12T01:13:07;100990.94;;;28.46;51.45
28344;BME280;15597;50.914;6.638;2023-08-12T01:15:35;100991.06;;;28.45;51.74
28344;BME280;15597;50.914;6.638;2023-08-12T01:18:02;100985.84;;;28.43;51.60
28344;BME280;15597;50.914;6.638;2023-08-12T01:20:29;100987.69;;;28.42;50.96
28344;BME280;15597;50.914;6.638;2023-08-12T01:22:57;100982.28;;;28.42;51.67
28344;BME280;15597;50.914;6.638;2023-08-12T01:25:27;100977.19;;;28.39;51.99
28344;BME280;15597;50.914;6.638;2023-08-12T01:27:52;100979.88;;;28.39;52.19
28344;BME280;15597;50.914;6.638;2023-08-12T01:30:19;100975.78;;;28.35;52.13
28344;BME280;15597;50.914;6.638;2023-08-12T01:32:52;100976.06;;;28.32;51.47
28344;BME280;15597;50.914;6.638;2023-08-12T01:35:47;100968.69;;;28.24;52.03
28344;BME280;15597;50.914;6.638;2023-08-12T01:38:15;100967.28;;;28.30;52.10
28344;BME280;15597;50.914;6.638;2023-08-12T01:40:43;100971.19;;;28.06;52.14
28344;BME280;15597;50.914;6.638;2023-08-12T01:43:10;100965.84;;;28.16;51.41
28344;BME280;15597;50.914;6.638;2023-08-12T01:45:35;100964.72;;;28.19;50.52
28344;BME280;15597;50.914;6.638;2023-08-12T01:48:01;100961.75;;;28.22;51.80
28344;BME280;15597;50.914;6.638;2023-08-12T01:50:27;100957.34;;;28.21;51.41
28344;BME280;15597;50.914;6.638;2023-08-12T01:52:52;100959.06;;;28.22;52.05
28344;BME280;15597;50.914;6.638;2023-08-12T01:55:18;100955.66;;;28.20;52.13
28344;BME280;15597;50.914;6.638;2023-08-12T01:57:43;100954.81;;;28.19;52.55
28344;BME280;15597;50.914;6.638;2023-08-12T02:00:09;100958.34;;;28.20;52.89
28344;BME280;15597;50.914;6.638;2023-08-12T02:02:44;100955.94;;;28.17;52.98
28344;BME280;15597;50.914;6.638;2023-08-12T02:05:12;100952.53;;;28.14;52.13
28344;BME280;15597;50.914;6.638;2023-08-12T02:07:38;100943.72;;;28.12;52.55
28344;BME280;15597;50.914;6.638;2023-08-12T02:10:04;100958.44;;;28.08;52.87
28344;BME280;15597;50.914;6.638;2023-08-12T02:12:31;100953.34;;;28.05;52.89
28344;BME280;15597;50.914;6.638;2023-08-12T02:14:56;100959.97;;;28.01;53.09
28344;BME280;15597;50.914;6.638;2023-08-12T02:17:23;100959.28;;;27.99;51.25
28344;BME280;15597;50.914;6.638;2023-08-12T02:19:50;100955.59;;;28.00;52.75
28344;BME280;15597;50.914;6.638;2023-08-12T02:22:16;100952.03;;;27.99;53.22
28344;BME280;15597;50.914;6.638;2023-08-12T02:24:41;100955.88;;;27.97;52.93
28344;BME280;15597;50.914;6.638;2023-08-12T02:27:07;100959.56;;;27.96;51.63
28344;BME280;15597;50.914;6.638;2023-08-12T02:29:33;100955.16;;;27.95;52.53
28344;BME280;15597;50.914;6.638;2023-08-12T02:31:58;100960.66;;;27.93;52.41
28344;BME280;15597;50.914;6.638;2023-08-12T02:34:24;100953.47;;;27.94;52.01
28344;BME280;15597;50.914;6.638;2023-08-12T02:36:51;100950.63;;;27.95;51.09
28344;BME280;15597;50.914;6.638;2023-08-12T02:39:16;100939.72;;;27.97;52.66
28344;BME280;15597;50.914;6.638;2023-08-12T02:41:42;100928.81;;;27.98;52.79
28344;BME280;15597;50.914;6.638;2023-08-12T02:44:07;100932.38;;;27.99;52.80
28344;BME280;15597;50.914;6.638;2023-08-12T02:46:33;100928.97;;;27.97;52.18
28344;BME280;15597;50.914;6.638;2023-08-12T02:48:58;100929.38;;;27.92;52.93
28344;BME280;15597;50.914;6.638;2023-08-12T02:51:24;100924.16;;;27.91;51.91
28344;BME280;15597;50.914;6.638;2023-08-12T02:53:49;100926.13;;;27.89;52.30
28344;BME280;15597;50.914;6.638;2023-08-12T02:56:15;100920.03;;;27.87;52.52
28344;BME280;15597;50.914;6.638;2023-08-12T02:58:41;100913.69;;;27.88;52.96
28344;BME280;15597;50.914;6.638;2023-08-12T03:01:06;100908.31;;;27.88;52.54
28344;BME280;15597;50.914;6.638;2023-08-12T03:03:32;100904.91;;;27.85;51.16
28344;BME280;15597;50.914;6.638;2023-08-12T03:05:58;100890.47;;;27.87;50.68
28344;BME280;15597;50.914;6.638;2023-08-12T03:08:24;100893.16;;;27.87;50.42
28344;BME280;15597;50.914;6.638;2023-08-12T03:10:50;100893.16;;;27.87;50.90
28344;BME280;15597;50.914;6.638;2023-08-12T03:13:16;100887.63;;;27.88;50.10
28344;BME280;15597;50.914;6.638;2023-08-12T03:15:42;100882.53;;;27.85;49.27
28344;BME280;15597;50.914;6.638;2023-08-12T03:18:08;100887.06;;;27.84;49.81
28344;BME280;15597;50.914;6.638;2023-08-12T03:20:35;100885.09;;;27.87;49.77
28344;BME280;15597;50.914;6.638;2023-08-12T03:23:02;100870.66;;;27.88;50.90
28344;BME280;15597;50.914;6.638;2023-08-12T03:25:28;100873.34;;;27.88;50.68
28344;BME280;15597;50.914;6.638;2023-08-12T03:27:54;100871.50;;;27.88;50.97
28344;BME280;15597;50.914;6.638;2023-08-12T03:30:20;100870.38;;;27.91;51.62
28344;BME280;15597;50.914;6.638;2023-08-12T03:32:47;100865.00;;;27.91;51.14
28344;BME280;15597;50.914;6.638;2023-08-12T03:35:13;100856.06;;;27.90;50.40
28344;BME280;15597;50.914;6.638;2023-08-12T03:37:39;100849.84;;;27.90;50.22
28344;BME280;15597;50.914;6.638;2023-08-12T03:40:05;100842.06;;;27.87;49.62
28344;BME280;15597;50.914;6.638;2023-08-12T03:42:31;100842.19;;;27.85;50.36
28344;BME280;15597;50.914;6.638;2023-08-12T03:45:00;100835.28;;;27.82;51.29
28344;BME280;15597;50.914;6.638;2023-08-12T03:47:26;100832.72;;;27.81;51.41
28344;BME280;15597;50.914;6.638;2023-08-12T03:49:52;100830.31;;;27.78;52.05
28344;BME280;15597;50.914;6.638;2023-08-12T03:52:18;100829.59;;;27.76;51.77
28344;BME280;15597;50.914;6.638;2023-08-12T03:54:43;100832.72;;;27.71;52.12
28344;BME280;15597;50.914;6.638;2023-08-12T03:57:11;100836.66;;;27.67;52.03
28344;BME280;15597;50.914;6.638;2023-08-12T03:59:36;100836.94;;;27.64;51.69
28344;BME280;15597;50.914;6.638;2023-08-12T04:02:02;100842.59;;;27.61;50.59
28344;BME280;15597;50.914;6.638;2023-08-12T04:04:29;100841.16;;;27.56;51.62
28344;BME280;15597;50.914;6.638;2023-08-12T04:06:55;100835.94;;;27.55;51.44
28344;BME280;15597;50.914;6.638;2023-08-12T04:09:20;100839.44;;;27.55;52.15
28344;BME280;15597;50.914;6.638;2023-08-12T04:11:46;100846.81;;;27.53;51.86
28344;BME280;15597;50.914;6.638;2023-08-12T04:14:13;100857.81;;;27.50;51.57
28344;BME280;15597;50.914;6.638;2023-08-12T04:16:39;100850.88;;;27.48;51.82
28344;BME280;15597;50.914;6.638;2023-08-12T04:19:05;100853.25;;;27.41;51.70
28344;BME280;15597;50.914;6.638;2023-08-12T04:21:32;100853.69;;;27.36;52.10
28344;BME280;15597;50.914;6.638;2023-08-12T04:23:59;100846.28;;;27.29;52.32
28344;BME280;15597;50.914;6.638;2023-08-12T04:26:24;100846.56;;;27.25;52.48
28344;BME280;15597;50.914;6.638;2023-08-12T04:28:50;100835.81;;;27.25;52.89
28344;BME280;15597;50.914;6.638;2023-08-12T04:31:16;100833.41;;;27.22;52.38
28344;BME280;15597;50.914;6.638;2023-08-12T04:33:42;100830.00;;;27.20;51.72
28344;BME280;15597;50.914;6.638;2023-08-12T04:36:08;100826.16;;;27.13;52.07
28344;BME280;15597;50.914;6.638;2023-08-12T04:38:34;100827.13;;;27.12;52.57
28344;BME280;15597;50.914;6.638;2023-08-12T04:41:02;100822.91;;;27.09;52.62
28344;BME280;15597;50.914;6.638;2023-08-12T04:43:28;100817.38;;;27.11;52.52
28344;BME280;15597;50.914;6.638;2023-08-12T04:45:53;100814.69;;;27.11;52.38
28344;BME280;15597;50.914;6.638;2023-08-12T04:48:19;100818.09;;;27.13;53.16
28344;BME280;15597;50.914;6.638;2023-08-12T04:50:45;100820.50;;;27.16;51.83
28344;BME280;15597;50.914;6.638;2023-08-12T04:53:10;100811.63;;;27.16;51.95
28344;BME280;15597;50.914;6.638;2023-08-12T04:55:36;100803.41;;;27.17;52.25
28344;BME280;15597;50.914;6.638;2023-08-12T04:58:02;100812.19;;;27.19;53.19
28344;BME280;15597;50.914;6.638;2023-08-12T05:00:28;100814.16;;;27.17;53.65
28344;BME280;15597;50.914;6.638;2023-08-12T05:02:54;100822.09;;;27.19;53.10
28344;BME280;15597;50.914;6.638;2023-08-12T05:05:19;100807.94;;;27.17;52.93
28344;BME280;15597;50.914;6.638;2023-08-12T05:07:45;100810.47;;;27.18;53.59
28344;BME280;15597;50.914;6.638;2023-08-12T05:10:17;100808.78;;;27.17;53.59
28344;BME280;15597;50.914;6.638;2023-08-12T05:12:43;100803.13;;;27.20;52.67
28344;BME280;15597;50.914;6.638;2023-08-12T05:15:10;100807.53;;;27.21;53.61
28344;BME280;15597;50.914;6.638;2023-08-12T05:17:36;100799.47;;;27.21;52.33
28344;BME280;15597;50.914;6.638;2023-08-12T05:20:01;100796.06;;;27.19;52.68
28344;BME280;15597;50.914;6.638;2023-08-12T05:22:27;100794.38;;;27.18;52.85
28344;BME280;15597;50.914;6.638;2023-08-12T05:24:52;100791.97;;;27.15;53.52
28344;BME280;15597;50.914;6.638;2023-08-12T05:27:18;100798.59;;;27.11;52.47
28344;BME280;15597;50.914;6.638;2023-08-12T05:29:43;100813.88;;;27.10;52.99
28344;BME280;15597;50.914;6.638;2023-08-12T05:32:09;100825.97;;;27.05;53.40
28344;BME280;15597;50.914;6.638;2023-08-12T05:34:34;100822.84;;;27.00;52.98
28344;BME280;15597;50.914;6.638;2023-08-12T05:37:00;100823.13;;;26.96;52.36
28344;BME280;15597;50.914;6.638;2023-08-12T05:39:26;100829.75;;;26.92;52.96
28344;BME280;15597;50.914;6.638;2023-08-12T05:41:51;100830.13;;;26.88;52.89
28344;BME280;15597;50.914;6.638;2023-08-12T05:44:17;100825.91;;;26.85;53.57
28344;BME280;15597;50.914;6.638;2023-08-12T05:46:43;100822.75;;;26.80;53.79
28344;BME280;15597;50.914;6.638;2023-08-12T05:49:09;100826.69;;;26.76;53.63
28344;BME280;15597;50.914;6.638;2023-08-12T05:51:34;100835.97;;;26.72;53.72
28344;BME280;15597;50.914;6.638;2023-08-12T05:54:00;100845.53;;;26.64;53.46
28344;BME280;15597;50.914;6.638;2023-08-12T05:56:26;100841.41;;;26.60;52.44
28344;BME280;15597;50.914;6.638;2023-08-12T05:58:51;100838.03;;;26.58;53.08
28344;BME280;15597;50.914;6.638;2023-08-12T06:01:18;100830.22;;;26.55;53.03
28344;BME280;15597;50.914;6.638;2023-08-12T06:03:44;100825.97;;;26.52;53.16
28344;BME280;15597;50.914;6.638;2023-08-12T06:06:09;100815.63;;;26.48;52.68
28344;BME280;15597;50.914;6.638;2023-08-12T06:08:35;100816.59;;;26.47;53.23
28344;BME280;15597;50.914;6.638;2023-08-12T06:11:01;100816.59;;;26.47;53.16
28344;BME280;15597;50.914;6.638;2023-08-12T06:13:26;100804.88;;;26.48;53.05
28344;BME280;15597;50.914;6.638;2023-08-12T06:15:52;100814.19;;;26.44;53.23
28344;BME280;15597;50.914;6.638;2023-08-12T06:18:18;100815.31;;;26.41;53.10
28344;BME280;15597;50.914;6.638;2023-08-12T06:20:43;100808.34;;;26.38;53.72
28344;BME280;15597;50.914;6.638;2023-08-12T06:23:09;100794.22;;;26.36;53.67
28344;BME280;15597;50.914;6.638;2023-08-12T06:25:34;100788.13;;;26.34;53.30
28344;BME280;15597;50.914;6.638;2023-08-12T06:28:02;100780.09;;;26.34;52.98
28344;BME280;15597;50.914;6.638;2023-08-12T06:30:30;100786.19;;;26.36;54.22
28344;BME280;15597;50.914;6.638;2023-08-12T06:32:55;100793.84;;;26.41;54.75
28344;BME280;15597;50.914;6.638;2023-08-12T06:35:21;100791.72;;;26.45;53.04
28344;BME280;15597;50.914;6.638;2023-08-12T06:37:47;100786.38;;;26.45;53.26
28344;BME280;15597;50.914;6.638;2023-08-12T06:40:12;100784.66;;;26.44;52.58
28344;BME280;15597;50.914;6.638;2023-08-12T06:42:38;100768.56;;;26.44;52.26
28344;BME280;15597;50.914;6.638;2023-08-12T06:45:04;100776.34;;;26.47;53.96
28344;BME280;15597;50.914;6.638;2023-08-12T06:47:30;100776.09;;;26.50;54.45
28344;BME280;15597;50.914;6.638;2023-08-12T06:49:55;100764.41;;;26.51;54.33
28344;BME280;15597;50.914;6.638;2023-08-12T06:52:21;100755.38;;;26.52;53.70
28344;BME280;15597;50.914;6.638;2023-08-12T06:54:47;100726.56;;;26.54;54.80
28344;BME280;15597;50.914;6.638;2023-08-12T06:57:13;100714.69;;;26.57;52.88
28344;BME280;15597;50.914;6.638;2023-08-12T06:59:38;100727.13;;;26.58;53.92
28344;BME280;15597;50.914;6.638;2023-08-12T07:02:06;100757.53;;;26.58;53.41
28344;BME280;15597;50.914;6.638;2023-08-12T07:04:32;100774.59;;;26.57;53.00
28344;BME280;15597;50.914;6.638;2023-08-12T07:06:57;100779.97;;;26.57;53.63
28344;BME280;15597;50.914;6.638;2023-08-12T07:09:23;100797.06;;;26.56;53.68
28344;BME280;15597;50.914;6.638;2023-08-12T07:11:48;100800.84;;;26.53;53.60
28344;BME280;15597;50.914;6.638;2023-08-12T07:14:14;100795.47;;;26.53;53.69
28344;BME280;15597;50.914;6.638;2023-08-12T07:16:40;100791.22;;;26.51;52.65
28344;BME280;15597;50.914;6.638;2023-08-12T07:19:05;100800.97;;;26.52;53.94
28344;BME280;15597;50.914;6.638;2023-08-12T07:21:31;100801.69;;;26.54;53.54
28344;BME280;15597;50.914;6.638;2023-08-12T07:23:56;100805.22;;;26.54;54.25
28344;BME280;15597;50.914;6.638;2023-08-12T07:26:22;100800.56;;;26.57;55.02
28344;BME280;15597;50.914;6.638;2023-08-12T07:28:47;100799.47;;;26.59;54.26
28344;BME280;15597;50.914;6.638;2023-08-12T07:31:13;100789.44;;;26.61;55.49
28344;BME280;15597;50.914;6.638;2023-08-12T07:33:39;100792.69;;;26.65;55.20
28344;BME280;15597;50.914;6.638;2023-08-12T07:36:05;100799.66;;;26.67;54.54
28344;BME280;15597;50.914;6.638;2023-08-12T07:38:31;100796.97;;;26.67;53.40
28344;BME280;15597;50.914;6.638;2023-08-12T07:40:58;100788.91;;;26.67;53.18
28344;BME280;15597;50.914;6.638;2023-08-12T07:43:23;100790.63;;;26.68;53.25
28344;BME280;15597;50.914;6.638;2023-08-12T07:45:52;100779.16;;;26.66;53.40
28344;BME280;15597;50.914;6.638;2023-08-12T07:48:19;100777.47;;;26.65;53.66
28344;BME280;15597;50.914;6.638;2023-08-12T07:50:45;100768.69;;;26.63;54.44
28344;BME280;15597;50.914;6.638;2023-08-12T07:53:10;100768.69;;;26.63;53.88
28344;BME280;15597;50.914;6.638;2023-08-12T07:55:36;100762.34;;;26.64;53.77
28344;BME280;15597;50.914;6.638;2023-08-12T07:58:02;100761.38;;;26.65;54.42
28344;BME280;15597;50.914;6.638;2023-08-12T08:00:28;100751.34;;;26.67;54.55
28344;BME280;15597;50.914;6.638;2023-08-12T08:02:53;100760.09;;;26.69;54.93
28344;BME280;15597;50.914;6.638;2023-08-12T08:05:19;100756.28;;;26.72;53.29
28344;BME280;15597;50.914;6.638;2023-08-12T08:07:44;100748.94;;;26.74;54.37
28344;BME280;15597;50.914;6.638;2023-08-12T08:10:10;100756.34;;;26.82;53.08
28344;BME280;15597;50.914;6.638;2023-08-12T08:12:36;100757.09;;;26.84;52.78
28344;BME280;15597;50.914;6.638;2023-08-12T08:15:01;100755.84;;;26.88;52.71
28344;BME280;15597;50.914;6.638;2023-08-12T08:17:29;100748.22;;;26.93;52.91
28344;BME280;15597;50.914;6.638;2023-08-12T08:19:54;100764.78;;;26.98;52.21
28344;BME280;15597;50.914;6.638;2023-08-12T08:22:20;100767.03;;;27.03;52.04
28344;BME280;15597;50.914;6.638;2023-08-12T08:24:46;100775.69;;;27.07;52.17
28344;BME280;15597;50.914;6.638;2023-08-12T08:27:12;100784.44;;;27.09;52.54
28344;BME280;15597;50.914;6.638;2023-08-12T08:29:38;100777.09;;;27.11;52.93
28344;BME280;15597;50.914;6.638;2023-08-12T08:32:04;100781.66;;;27.10;53.25
28344;BME280;15597;50.914;6.638;2023-08-12T08:34:30;100786.16;;;27.10;52.31
28344;BME280;15597;50.914;6.638;2023-08-12T08:36:56;100774.41;;;27.11;53.17
28344;BME280;15597;50.914;6.638;2023-08-12T08:39:22;100769.63;;;27.15;52.67
28344;BME280;15597;50.914;6.638;2023-08-12T08:41:48;100768.50;;;27.17;54.12
28344;BME280;15597;50.914;6.638;2023-08-12T08:44:15;100769.91;;;27.21;54.97
28344;BME280;15597;50.914;6.638;2023-08-12T08:46:43;100761.59;;;27.24;54.86
28344;BME280;15597;50.914;6.638;2023-08-12T08:49:11;100778.41;;;27.26;55.45
28344;BME280;15597;50.914;6.638;2023-08-12T08:51:37;100784.50;;;27.29;55.60
28344;BME280;15597;50.914;6.638;2023-08-12T08:54:04;100794.13;;;27.31;54.73
28344;BME280;15597;50.914;6.638;2023-08-12T08:56:33;100788.16;;;27.27;53.70
28344;BME280;15597;50.914;6.638;2023-08-12T08:58:59;100795.25;;;27.29;53.58
28344;BME280;15597;50.914;6.638;2023-08-12T09:01:26;100796.94;;;27.30;54.18
28344;BME280;15597;50.914;6.638;2023-08-12T09:03:54;100798.53;;;27.32;53.31
28344;BME280;15597;50.914;6.638;2023-08-12T09:06:22;100790.19;;;27.35;54.23
28344;BME280;15597;50.914;6.638;2023-08-12T09:08:51;100792.72;;;27.37;53.53
28344;BME280;15597;50.914;6.638;2023-08-12T09:11:18;100786.34;;;27.38;54.10
28344;BME280;15597;50.914;6.638;2023-08-12T09:13:44;100792.16;;;27.43;54.02
28344;BME280;15597;50.914;6.638;2023-08-12T09:16:10;100795.28;;;27.48;55.00
28344;BME280;15597;50.914;6.638;2023-08-12T09:18:37;100791.34;;;27.52;54.33
28344;BME280;15597;50.914;6.638;2023-08-12T09:21:03;100794.50;;;27.58;54.80
28344;BME280;15597;50.914;6.638;2023-08-12T09:23:38;100792.78;;;27.56;55.00
28344;BME280;15597;50.914;6.638;2023-08-12T09:26:18;100779.50;;;27.55;54.46
28344;BME280;15597;50.914;6.638;2023-08-12T09:28:45;100783.47;;;27.61;51.92
28344;BME280;15597;50.914;6.638;2023-08-12T09:31:25;100796.72;;;27.52;53.23
28344;BME280;15597;50.914;6.638;2023-08-12T09:33:52;100788.25;;;27.57;52.34
28344;BME280;15597;50.914;6.638;2023-08-12T09:36:18;100784.72;;;27.56;50.68
28344;BME280;15597;50.914;6.638;2023-08-12T09:38:46;100789.13;;;27.58;52.74
28344;BME280;15597;50.914;6.638;2023-08-12T09:41:12;100783.47;;;27.61;53.15
28344;BME280;15597;50.914;6.638;2023-08-12T09:43:42;100779.66;;;27.63;53.34
28344;BME280;15597;50.914;6.638;2023-08-12T09:46:11;100773.00;;;27.67;52.37
28344;BME280;15597;50.914;6.638;2023-08-12T09:48:40;100775.56;;;27.69;52.05
28344;BME280;15597;50.914;6.638;2023-08-12T09:51:07;100778.97;;;27.71;51.65
28344;BME280;15597;50.914;6.638;2023-08-12T09:53:34;100780.66;;;27.72;50.82
28344;BME280;15597;50.914;6.638;2023-08-12T09:56:07;100782.91;;;27.67;50.06
28344;BME280;15597;50.914;6.638;2023-08-12T09:58:36;100775.28;;;27.72;50.42
28344;BME280;15597;50.914;6.638;2023-08-12T10:01:03;100779.50;;;27.75;51.51
28344;BME280;15597;50.914;6.638;2023-08-12T10:03:32;100780.66;;;27.72;51.63
28344;BME280;15597;50.914;6.638;2023-08-12T10:05:59;100778.97;;;27.71;51.61
28344;BME280;15597;50.914;6.638;2023-08-12T10:08:27;100768.22;;;27.71;51.67
28344;BME280;15597;50.914;6.638;2023-08-12T10:10:53;100780.94;;;27.69;50.39
28344;BME280;15597;50.914;6.638;2023-08-12T10:13:19;100776.69;;;27.66;50.45
28344;BME280;15597;50.914;6.638;2023-08-12T10:15:46;100773.16;;;27.66;49.97
28344;BME280;15597;50.914;6.638;2023-08-12T10:18:13;100766.09;;;27.65;51.17
28344;BME280;15597;50.914;6.638;2023-08-12T10:20:39;100763.94;;;27.68;50.93
28344;BME280;15597;50.914;6.638;2023-08-12T10:23:05;100757.44;;;27.71;50.75
28344;BME280;15597;50.914;6.638;2023-08-12T10:25:32;100762.81;;;27.71;50.09
28344;BME280;15597;50.914;6.638;2023-08-12T10:28:01;100759.16;;;27.72;50.76
28344;BME280;15597;50.914;6.638;2023-08-12T10:30:30;100760.84;;;27.73;49.82
28344;BME280;15597;50.914;6.638;2023-08-12T10:32:57;100758.59;;;27.78;51.06
28344;BME280;15597;50.914;6.638;2023-08-12T10:35:23;100764.38;;;27.83;51.92
28344;BME280;15597;50.914;6.638;2023-08-12T10:37:49;100759.44;;;27.89;51.56
28344;BME280;15597;50.914;6.638;2023-08-12T10:40:20;100776.38;;;27.89;52.23
28344;BME280;15597;50.914;6.638;2023-08-12T10:42:48;100762.53;;;27.94;51.87
28344;BME280;15597;50.914;6.638;2023-08-12T10:45:15;100763.53;;;27.93;51.63
28344;BME280;15597;50.914;6.638;2023-08-12T10:47:48;100764.22;;;27.95;51.30
28344;BME280;15597;50.914;6.638;2023-08-12T10:50:22;100754.03;;;27.89;52.00
28344;BME280;15597;50.914;6.638;2023-08-12T10:52:52;100759.28;;;27.90;51.69
28344;BME280;15597;50.914;6.638;2023-08-12T10:55:21;100767.91;;;27.94;52.37
28344;BME280;15597;50.914;6.638;2023-08-12T10:57:52;100765.34;;;27.92;51.35
28344;BME280;15597;50.914;6.638;2023-08-12T11:00:28;100764.94;;;27.87;51.62
28344;BME280;15597;50.914;6.638;2023-08-12T11:02:56;100759.28;;;27.80;51.40
28344;BME280;15597;50.914;6.638;2023-08-12T11:05:22;100755.19;;;27.76;51.85
28344;BME280;15597;50.914;6.638;2023-08-12T11:10:24;100753.34;;;27.67;51.89
28344;BME280;15597;50.914;6.638;2023-08-12T11:15:16;100740.75;;;27.67;52.54
28344;BME280;15597;50.914;6.638;2023-08-12T11:17:42;100742.44;;;27.68;52.62
28344;BME280;15597;50.914;6.638;2023-08-12T11:20:10;100742.03;;;27.73;52.19
28344;BME280;15597;50.914;6.638;2023-08-12T11:22:43;100736.22;;;27.68;52.43
28344;BME280;15597;50.914;6.638;2023-08-12T11:25:11;100739.34;;;27.73;52.59
28344;BME280;15597;50.914;6.638;2023-08-12T11:30:07;100736.38;;;27.76;52.47
28344;BME280;15597;50.914;6.638;2023-08-12T11:32:34;100733.69;;;27.76;52.54
28344;BME280;15597;50.914;6.638;2023-08-12T11:35:00;100739.06;;;27.76;52.48
28344;BME280;15597;50.914;6.638;2023-08-12T11:37:26;100732.69;;;27.77;52.73
28344;BME280;15597;50.914;6.638;2023-08-12T11:39:52;100732.41;;;27.80;52.94
28344;BME280;15597;50.914;6.638;2023-08-12T11:42:18;100732.81;;;27.85;53.04
28344;BME280;15597;50.914;6.638;2023-08-12T11:44:43;100726.16;;;27.90;52.84
28344;BME280;15597;50.914;6.638;2023-08-12T11:47:09;100730.28;;;27.94;52.92
28344;BME280;15597;50.914;6.638;2023-08-12T11:49:34;100724.59;;;27.97;53.05
28344;BME280;15597;50.914;6.638;2023-08-12T11:52:00;100726.00;;;28.01;52.80
28344;BME280;15597;50.914;6.638;2023-08-12T11:54:26;100727.13;;;28.08;53.32
28344;BME280;15597;50.914;6.638;2023-08-12T11:56:52;100721.91;;;28.17;53.71
28344;BME280;15597;50.914;6.638;2023-08-12T11:59:18;100725.72;;;28.24;53.02
28344;BME280;15597;50.914;6.638;2023-08-12T12:01:48;100722.88;;;28.25;53.11
28344;BME280;15597;50.914;6.638;2023-08-12T12:04:14;100721.84;;;28.36;53.27
28344;BME280;15597;50.914;6.638;2023-08-12T12:06:41;100723.13;;;28.42;52.36
28344;BME280;15597;50.914;6.638;2023-08-12T12:09:08;100720.97;;;28.46;52.26
28344;BME280;15597;50.914;6.638;2023-08-12T12:11:39;100725.91;;;28.50;52.21
28344;BME280;15597;50.914;6.638;2023-08-12T12:14:06;100717.56;;;28.53;51.74
28344;BME280;15597;50.914;6.638;2023-08-12T12:16:40;100721.06;;;28.54;51.54
28344;BME280;15597;50.914;6.638;2023-08-12T12:19:20;100731.84;;;28.54;51.80
28344;BME280;15597;50.914;6.638;2023-08-12T12:21:48;100727.03;;;28.57;51.42
28344;BME280;15597;50.914;6.638;2023-08-12T12:24:14;100725.03;;;28.60;51.81
28344;BME280;15597;50.914;6.638;2023-08-12T12:26:40;100726.72;;;28.61;51.39
28344;BME280;15597;50.914;6.638;2023-08-12T12:29:07;100728.56;;;28.60;51.87
28344;BME280;15597;50.914;6.638;2023-08-12T12:31:33;100727.84;;;28.58;51.04
28344;BME280;15597;50.914;6.638;2023-08-12T12:34:01;100725.31;;;28.56;51.69
28344;BME280;15597;50.914;6.638;2023-08-12T12:36:26;100728.03;;;28.56;51.69
28344;BME280;15597;50.914;6.638;2023-08-12T12:38:52;100722.06;;;28.53;51.65
28344;BME280;15597;50.914;6.638;2023-08-12T12:41:18;100725.06;;;28.50;51.11
28344;BME280;15597;50.914;6.638;2023-08-12T12:43:43;100728.19;;;28.45;51.50
28344;BME280;15597;50.914;6.638;2023-08-12T12:46:09;100730.03;;;28.45;50.95
28344;BME280;15597;50.914;6.638;2023-08-12T12:48:34;100769.00;;;28.40;52.95
28344;BME280;15597;50.914;6.638;2023-08-12T12:51:00;100786.88;;;28.22;53.56
28344;BME280;15597;50.914;6.638;2023-08-12T12:53:26;100787.41;;;28.06;54.15